Leander — DD5959 — position and weather

sailwx.info

Track history (hours):
 
Tides and Currents Weather Stations Pressure Air Temp Water Temp Dewpoint Dewpoint Depression Visibility Wind Speed Wind Dir Waves Ship Positions

Leander

Last reported at 2017-Jul-20 15:00 UTC. Time now 2017-Sep-23 07:23 UTC.
Position N 54°39' E 013°58'.
Warning: this ship's position is months out of date.

Length 15 m.

Type: Sailing vessel. MMSI: 211480070.

Date/timePositionNaut miles runAvg speedWind from/ knotsBaromVisibWave heightAir tempDewpointWater temp
2017-Jul-20 15:00N 54°39' E 013°58'8 7.8
2017-Jul-20 13:58N 54°44' E 014°08'3 7.1
2017-Jul-20 13:30N 54°47' E 014°11'4 7.3
2017-Jul-20 12:59N 54°51' E 014°13'4 8.2
2017-Jul-20 12:30N 54°54' E 014°17'4 8.4
2017-Jul-20 12:00N 54°57' E 014°22'4 8.5
2017-Jul-20 11:30N 55°01' E 014°26'4 8.1
2017-Jul-20 11:00N 55°04' E 014°30'4 7.8
2017-Jul-20 10:30N 55°07' E 014°35'4 7.7
2017-Jul-20 10:00N 55°10' E 014°39'4 7.2
2017-Jul-20 09:30N 55°13' E 014°42'4 7.1
2017-Jul-20 09:00N 55°17' E 014°44'1 3.0
2017-Jul-20 08:30N 55°18' E 014°45'2 3.8
2017-Jul-20 07:59N 55°17' E 014°48'0 0.0
2017-Jul-20 07:20N 55°17' E 014°48'0 0.0
2017-Jul-20 06:59N 55°17' E 014°48'0 0.0
2017-Jul-20 06:29N 55°17' E 014°48'0 0.0
2017-Jul-19 13:35N 55°17' E 014°48'0 0.0
2017-Jul-19 13:23N 55°17' E 014°48'0 0.0
2017-Jul-19 12:41N 55°17' E 014°48'0 0.0
2017-Jul-19 12:23N 55°17' E 014°48'0 0.0
2017-Jul-19 11:52N 55°17' E 014°48'0 0.0
2017-Jul-19 11:22N 55°17' E 014°48'0 0.4
2017-Jul-19 11:00N 55°17' E 014°48'2 4.0
2017-Jul-19 10:31N 55°17' E 014°52'3 6.9
2017-Jul-19 10:00N 55°18' E 014°58'2 4.4
2017-Jul-19 09:30N 55°18' E 015°01'3 6.5
2017-Jul-19 08:59N 55°19' E 015°07'2 4.4
2017-Jul-19 08:29N 55°19' E 015°11'0 0.2
2017-Jul-19 08:00N 55°19' E 015°11'0 0.0
2017-Jul-18 13:28N 55°19' E 015°11'0 0.0
2017-Jul-18 12:58N 55°19' E 015°11'0 0.0
2017-Jul-18 12:28N 55°19' E 015°11'0 0.1
2017-Jul-18 11:58N 55°19' E 015°11'0 0.0
2017-Jul-18 11:28N 55°19' E 015°11'0 0.0
2017-Jul-18 10:58N 55°19' E 015°11'0 0.0
2017-Jul-18 10:28N 55°19' E 015°11'1 1.9
2017-Jul-18 10:00N 55°19' E 015°13'3 5.6
2017-Jul-18 09:30N 55°21' E 015°17'3 6.4
2017-Jul-18 09:00N 55°24' E 015°20'4 6.8
2017-Jul-18 08:29N 55°27' E 015°23'9 7.4
2017-Jul-18 07:17N 55°35' E 015°29'2 7.7
2017-Jul-18 06:58N 55°37' E 015°31'4 8.4
2017-Jul-18 06:30N 55°41' E 015°34'4 7.9
2017-Jul-18 06:00N 55°44' E 015°37'4 8.2
2017-Jul-18 05:30N 55°48' E 015°40'4 8.3
2017-Jul-18 04:59N 55°52' E 015°43'4 8.2
2017-Jul-18 04:30N 55°55' E 015°45'4 7.5
2017-Jul-18 04:00N 55°59' E 015°48'4 7.5
2017-Jul-18 03:30N 56°02' E 015°51'3 6.9
2017-Jul-18 03:00N 56°06' E 015°52'0 0.0
2017-Jul-17 18:51N 56°06' E 015°51'0 0.0
2017-Jul-17 18:30N 56°06' E 015°51'0 0.0
2017-Jul-17 18:00N 56°06' E 015°51'0 0.0
2017-Jul-17 17:30N 56°06' E 015°51'0 0.0
2017-Jul-17 15:04N 56°06' E 015°51'0 0.0
2017-Jul-17 14:58N 56°06' E 015°51'0 0.0
2017-Jul-17 14:22N 56°06' E 015°51'1 2.1
2017-Jul-17 14:00N 56°05' E 015°52'3 5.2
2017-Jul-17 13:30N 56°06' E 015°56'3 5.5
2017-Jul-17 13:00N 56°08' E 015°60'3 5.9
2017-Jul-17 12:30N 56°10' E 016°03'4 7.2
2017-Jul-17 12:00N 56°14' E 016°05'4 7.3
2017-Jul-17 11:30N 56°17' E 016°07'4 7.6
2017-Jul-17 11:00N 56°21' E 016°09'4 7.9
2017-Jul-17 10:30N 56°25' E 016°12'4 7.8
2017-Jul-17 09:59N 56°29' E 016°14'  
2017-Jul-12 04:25N 58°41' E 017°11'3 6.6
2017-Jul-12 03:58N 58°43' E 017°08'0 0.0
2017-Jul-11 10:28N 58°44' E 017°07'2 4.2
2017-Jul-11 09:58N 58°43' E 017°11'  
Track history (hours):
 
Tides and Currents Weather Stations Pressure Air Temp Water Temp Dewpoint Dewpoint Depression Visibility Wind Speed Wind Dir Waves Ship Positions

Leander

Last reported at 2017-Jul-20 15:00 UTC. Time now 2017-Sep-23 07:23 UTC.
Position N 54°39' E 013°58'.
Warning: this ship's position is months out of date.

Length 15 m.

Type: Sailing vessel. MMSI: 211480070.

Date/timePositionNaut miles runAvg speedWind from/ knotsBaromVisibWave heightAir tempDewpointWater temp
2017-Jul-20 15:00N 54°39' E 013°58'8 7.8
2017-Jul-20 13:58N 54°44' E 014°08'3 7.1
2017-Jul-20 13:30N 54°47' E 014°11'4 7.3
2017-Jul-20 12:59N 54°51' E 014°13'4 8.2
2017-Jul-20 12:30N 54°54' E 014°17'4 8.4
2017-Jul-20 12:00N 54°57' E 014°22'4 8.5
2017-Jul-20 11:30N 55°01' E 014°26'4 8.1
2017-Jul-20 11:00N 55°04' E 014°30'4 7.8
2017-Jul-20 10:30N 55°07' E 014°35'4 7.7
2017-Jul-20 10:00N 55°10' E 014°39'4 7.2
2017-Jul-20 09:30N 55°13' E 014°42'4 7.1
2017-Jul-20 09:00N 55°17' E 014°44'1 3.0
2017-Jul-20 08:30N 55°18' E 014°45'2 3.8
2017-Jul-20 07:59N 55°17' E 014°48'0 0.0
2017-Jul-20 07:20N 55°17' E 014°48'0 0.0
2017-Jul-20 06:59N 55°17' E 014°48'0 0.0
2017-Jul-20 06:29N 55°17' E 014°48'0 0.0
2017-Jul-19 13:35N 55°17' E 014°48'0 0.0
2017-Jul-19 13:23N 55°17' E 014°48'0 0.0
2017-Jul-19 12:41N 55°17' E 014°48'0 0.0
2017-Jul-19 12:23N 55°17' E 014°48'0 0.0
2017-Jul-19 11:52N 55°17' E 014°48'0 0.0
2017-Jul-19 11:22N 55°17' E 014°48'0 0.4
2017-Jul-19 11:00N 55°17' E 014°48'2 4.0
2017-Jul-19 10:31N 55°17' E 014°52'3 6.9
2017-Jul-19 10:00N 55°18' E 014°58'2 4.4
2017-Jul-19 09:30N 55°18' E 015°01'3 6.5
2017-Jul-19 08:59N 55°19' E 015°07'2 4.4
2017-Jul-19 08:29N 55°19' E 015°11'0 0.2
2017-Jul-19 08:00N 55°19' E 015°11'0 0.0
2017-Jul-18 13:28N 55°19' E 015°11'0 0.0
2017-Jul-18 12:58N 55°19' E 015°11'0 0.0
2017-Jul-18 12:28N 55°19' E 015°11'0 0.1
2017-Jul-18 11:58N 55°19' E 015°11'0 0.0
2017-Jul-18 11:28N 55°19' E 015°11'0 0.0
2017-Jul-18 10:58N 55°19' E 015°11'0 0.0
2017-Jul-18 10:28N 55°19' E 015°11'1 1.9
2017-Jul-18 10:00N 55°19' E 015°13'3 5.6
2017-Jul-18 09:30N 55°21' E 015°17'3 6.4
2017-Jul-18 09:00N 55°24' E 015°20'4 6.8
2017-Jul-18 08:29N 55°27' E 015°23'9 7.4
2017-Jul-18 07:17N 55°35' E 015°29'2 7.7
2017-Jul-18 06:58N 55°37' E 015°31'4 8.4
2017-Jul-18 06:30N 55°41' E 015°34'4 7.9
2017-Jul-18 06:00N 55°44' E 015°37'4 8.2
2017-Jul-18 05:30N 55°48' E 015°40'4 8.3
2017-Jul-18 04:59N 55°52' E 015°43'4 8.2
2017-Jul-18 04:30N 55°55' E 015°45'4 7.5
2017-Jul-18 04:00N 55°59' E 015°48'4 7.5
2017-Jul-18 03:30N 56°02' E 015°51'3 6.9
2017-Jul-18 03:00N 56°06' E 015°52'0 0.0
2017-Jul-17 18:51N 56°06' E 015°51'0 0.0
2017-Jul-17 18:30N 56°06' E 015°51'0 0.0
2017-Jul-17 18:00N 56°06' E 015°51'0 0.0
2017-Jul-17 17:30N 56°06' E 015°51'0 0.0
2017-Jul-17 15:04N 56°06' E 015°51'0 0.0
2017-Jul-17 14:58N 56°06' E 015°51'0 0.0
2017-Jul-17 14:22N 56°06' E 015°51'1 2.1
2017-Jul-17 14:00N 56°05' E 015°52'3 5.2
2017-Jul-17 13:30N 56°06' E 015°56'3 5.5
2017-Jul-17 13:00N 56°08' E 015°60'3 5.9
2017-Jul-17 12:30N 56°10' E 016°03'4 7.2
2017-Jul-17 12:00N 56°14' E 016°05'4 7.3
2017-Jul-17 11:30N 56°17' E 016°07'4 7.6
2017-Jul-17 11:00N 56°21' E 016°09'4 7.9
2017-Jul-17 10:30N 56°25' E 016°12'4 7.8
2017-Jul-17 09:59N 56°29' E 016°14'  
2017-Jul-12 04:25N 58°41' E 017°11'3 6.6
2017-Jul-12 03:58N 58°43' E 017°08'0 0.0
2017-Jul-11 10:28N 58°44' E 017°07'2 4.2
2017-Jul-11 09:58N 58°43' E 017°11'  

Dump ship's entire track history